Newport, New Hampshire
Current Conditions -  °F | °C
As of 1:54 AM on Friday 31 Oct 2014 (Local Time) from KVSF Reporting Station
Overcast Overcast  
Wind Chill: 42°   Ceiling: 4500
Heat Index: 42°   Visibility: 10mi
Dew Point: 37°   Wind: 0mph
Humidity: 82%   Direction: NA
Pressure: 30.02"   Gusts: NA
Location:  43.36°N, 72.17°W
Report Text: KVSF 310554Z AUTO 00000KT 10SM SCT031 OVC045 06/03 A3002 RMK AO2 SLP169 T00560028 10061 20028 53005
Loading
Personal Weather Stations






























Interactive Weather Map
Tropical Storm Tracking
New forecast layout! Learn more

10-Day Weather Forecast

Advertisements
Track Severe Weather on mobile